Strona główna
METAR-TAF:

METAR-TAF

Lotnisko :

Eastern Slopes Regional Airport

Fryeburg, Maine, Stany Zjednoczone

Szerokość geograficzna: 43-59-21N, Długość geograficzna: 070-57-01W, wysokość: 137 m

Aktualna obserwacja pogody

Raport powstał 17 minut temu, godzina 10:54 UTC
Wiatr 3 kt od zachód
Temperatura 13°C
Wilgotność 100%
Ciśnienie 1018 hPa
Widzialność: 16.1 km
bezchmurnie

METAR: KIZG 191054Z AUTO 28003KT 10SM CLR 13/13 A3005 RMK AO2 SLP177 T01330133 $

czas: 07:11 (11:11 UTC)


TAF: brakujący

Obserwacja i prognoza pogody dla ponad 4000 lotnisk (raport METAR i TAF).

Dostępne stacje oznaczono żółtymi i czerwonymi punktami na mapie.

Najedź kursorem aby zobaczyć nazwę stacji.

Kliknij aby zobaczyć obserwacje i prognozy pogody.

Aby zmienić mapę: kliknij na zielony przycisk z czarnym krzyżykiem, aby powiększyć; na zielony przycisk z myślnikiem, aby pomniejszyć; na zielone strzałki, aby przejść do map sąsiednich.


METAR-TAF: